createdAt,value
2022-09-01T00:00:13.347Z,23.46
2022-09-01T00:02:43.221Z,23.79
2022-09-01T00:05:10.668Z,23.62
2022-09-01T00:07:37.836Z,23.75
2022-09-01T00:10:06.355Z,23.76
2022-09-01T00:12:34.148Z,23.46
2022-09-01T00:15:01.309Z,23.54
2022-09-01T00:17:30.452Z,23.49
2022-09-01T00:19:57.596Z,23.53
2022-09-01T00:22:24.766Z,23.60
2022-09-01T00:24:52.271Z,23.43
2022-09-01T00:27:19.443Z,23.32
2022-09-01T00:29:47.137Z,23.45
2022-09-01T00:32:14.610Z,23.36
2022-09-01T00:34:42.000Z,23.28
2022-09-01T00:37:09.214Z,23.25
2022-09-01T00:39:39.328Z,23.21
2022-09-01T00:42:07.068Z,23.15
2022-09-01T00:44:36.481Z,23.11
2022-09-01T00:47:06.791Z,22.80
2022-09-01T00:49:45.324Z,23.01
2022-09-01T00:52:17.993Z,22.92
2022-09-01T00:54:46.608Z,22.89
2022-09-01T00:57:14.049Z,23.15
2022-09-01T00:59:47.192Z,22.77
2022-09-01T01:02:14.709Z,22.81
2022-09-01T01:04:43.885Z,22.66
2022-09-01T01:07:11.350Z,22.85
2022-09-01T01:09:58.031Z,22.66
2022-09-01T01:12:28.069Z,22.84
2022-09-01T01:14:56.119Z,22.62
2022-09-01T01:17:23.405Z,22.33
2022-09-01T01:20:14.148Z,22.46
2022-09-01T01:23:05.693Z,22.50
2022-09-01T01:25:38.448Z,22.49
2022-09-01T01:28:15.924Z,22.34
2022-09-01T01:30:44.852Z,22.42
2022-09-01T01:33:12.336Z,22.37
2022-09-01T01:35:41.999Z,22.08
2022-09-01T01:38:09.251Z,22.26
2022-09-01T01:40:37.548Z,22.10
2022-09-01T01:43:05.594Z,22.04
2022-09-01T01:45:32.972Z,22.00
2022-09-01T01:48:01.203Z,22.19
2022-09-01T01:50:34.154Z,21.98
2022-09-01T01:53:03.630Z,22.07
2022-09-01T01:55:39.564Z,21.98
2022-09-01T01:58:09.888Z,22.05
2022-09-01T02:00:37.790Z,21.98
2022-09-01T02:03:05.302Z,22.16
2022-09-01T02:05:33.231Z,21.99
2022-09-01T02:08:05.256Z,21.90
2022-09-01T02:10:34.305Z,22.12
2022-09-01T02:13:07.119Z,22.22
2022-09-01T02:15:38.824Z,21.98
2022-09-01T02:18:06.155Z,22.10
2022-09-01T02:20:33.552Z,21.86
2022-09-01T02:23:10.679Z,21.91
2022-09-01T02:25:45.939Z,21.94
2022-09-01T02:28:28.687Z,21.92
2022-09-01T02:30:57.730Z,22.11
2022-09-01T02:33:25.925Z,21.96
2022-09-01T02:35:57.670Z,21.99
2022-09-01T02:38:30.218Z,22.15
2022-09-01T02:40:58.953Z,21.97
2022-09-01T02:43:28.249Z,21.98
2022-09-01T02:45:57.695Z,22.05
2022-09-01T02:48:35.885Z,21.82
2022-09-01T02:51:04.670Z,21.78
2022-09-01T02:53:35.612Z,21.70
2022-09-01T02:56:04.390Z,21.79
2022-09-01T02:58:34.450Z,21.83
2022-09-01T03:01:02.854Z,21.73
2022-09-01T03:03:30.185Z,21.84
2022-09-01T03:05:58.056Z,21.80
2022-09-01T03:08:25.419Z,21.68
2022-09-01T03:10:54.295Z,21.73
2022-09-01T03:13:23.745Z,21.66
2022-09-01T03:15:51.060Z,21.59
2022-09-01T03:18:21.645Z,21.43
2022-09-01T03:20:54.084Z,21.64
2022-09-01T03:23:21.329Z,21.58
2022-09-01T03:25:49.344Z,21.49
2022-09-01T03:28:17.317Z,21.55
2022-09-01T03:30:46.142Z,21.58
2022-09-01T03:33:13.889Z,21.72
2022-09-01T03:35:42.127Z,21.65
2022-09-01T03:38:09.785Z,21.49
2022-09-01T03:40:38.206Z,21.52
2022-09-01T03:43:07.036Z,21.51
2022-09-01T03:45:38.498Z,21.32
2022-09-01T03:48:09.088Z,21.56
2022-09-01T03:50:47.329Z,21.41
2022-09-01T03:53:16.098Z,21.40
2022-09-01T03:55:45.205Z,21.40
2022-09-01T03:58:14.554Z,21.35
2022-09-01T04:00:47.717Z,21.49
2022-09-01T04:03:28.582Z,21.07
2022-09-01T04:05:56.602Z,21.07
2022-09-01T04:08:32.902Z,20.88
2022-09-01T04:11:02.922Z,21.20
2022-09-01T04:13:37.608Z,21.28
2022-09-01T04:16:31.777Z,21.23
2022-09-01T04:19:00.480Z,21.24
2022-09-01T04:21:30.451Z,21.40
2022-09-01T04:24:05.286Z,21.30
2022-09-01T04:26:34.242Z,21.33
2022-09-01T04:29:01.396Z,21.35
2022-09-01T04:31:31.064Z,21.22
2022-09-01T04:33:59.260Z,21.03
2022-09-01T04:36:27.525Z,21.20
2022-09-01T04:38:56.122Z,20.99
2022-09-01T04:41:31.017Z,20.96
2022-09-01T04:44:01.416Z,21.07
2022-09-01T04:46:32.523Z,20.99
2022-09-01T04:49:03.305Z,20.98
2022-09-01T04:51:31.125Z,20.99
2022-09-01T04:53:58.370Z,21.12
2022-09-01T04:56:26.846Z,21.13
2022-09-01T04:58:55.854Z,21.18
2022-09-01T05:01:24.432Z,20.99
2022-09-01T05:04:01.389Z,21.20
2022-09-01T05:06:33.955Z,21.01
2022-09-01T05:09:01.354Z,21.11
2022-09-01T05:11:29.811Z,21.15
2022-09-01T05:13:58.371Z,21.01
2022-09-01T05:16:27.966Z,21.06
2022-09-01T05:18:57.003Z,21.06
2022-09-01T05:21:26.668Z,21.14
2022-09-01T05:23:54.345Z,21.14
2022-09-01T05:26:23.882Z,21.21
2022-09-01T05:28:54.036Z,21.23
2022-09-01T05:31:22.373Z,21.07
2022-09-01T05:33:50.894Z,21.02
2022-09-01T05:36:20.236Z,20.95
2022-09-01T05:38:48.184Z,20.92
2022-09-01T05:41:16.176Z,20.95
2022-09-01T05:43:49.036Z,21.10
2022-09-01T05:46:17.039Z,20.87
2022-09-01T05:48:45.517Z,20.94
2022-09-01T05:51:42.227Z,21.07
2022-09-01T05:54:05.024Z,21.03
2022-09-01T05:56:37.630Z,21.21
2022-09-01T05:59:23.676Z,21.29
2022-09-01T06:01:53.369Z,21.26
2022-09-01T06:04:22.350Z,21.17
2022-09-01T06:07:07.923Z,21.11
2022-09-01T06:09:40.092Z,21.17
2022-09-01T06:12:11.991Z,21.27
2022-09-01T06:14:39.578Z,21.13
2022-09-01T06:17:10.094Z,21.26
2022-09-01T06:19:38.316Z,21.24
2022-09-01T06:22:06.495Z,21.06
2022-09-01T06:24:33.806Z,20.93
2022-09-01T06:27:01.270Z,21.12
2022-09-01T06:29:31.405Z,21.28
2022-09-01T06:32:02.348Z,20.98
2022-09-01T06:34:31.988Z,21.10
2022-09-01T06:36:59.843Z,21.23
2022-09-01T06:39:27.094Z,20.92
2022-09-01T06:41:58.136Z,21.08
2022-09-01T06:44:26.082Z,21.18
2022-09-01T06:46:53.911Z,21.26
2022-09-01T06:49:23.670Z,21.14
2022-09-01T06:51:52.795Z,21.08
2022-09-01T06:54:22.884Z,20.76
2022-09-01T06:56:51.721Z,21.10
2022-09-01T06:59:20.772Z,21.08
2022-09-01T07:04:43.077Z,21.18
2022-09-01T07:10:18.311Z,21.20
2022-09-01T07:13:07.824Z,21.17
2022-09-01T07:18:31.334Z,21.24
2022-09-01T07:21:07.679Z,21.32
2022-09-01T07:24:07.638Z,21.38
2022-09-01T07:26:36.623Z,21.39
2022-09-01T07:29:12.940Z,21.12
2022-09-01T07:34:46.288Z,21.53
2022-09-01T07:38:46.903Z,21.33
2022-09-01T07:39:57.367Z,21.16
2022-09-01T07:45:33.408Z,21.50
2022-09-01T07:48:06.612Z,21.49
2022-09-01T07:50:40.982Z,21.57
2022-09-01T07:53:31.460Z,21.51
2022-09-01T07:56:00.128Z,21.48
2022-09-01T07:58:28.256Z,21.61
2022-09-01T08:01:02.861Z,21.48
2022-09-01T08:03:30.480Z,21.58
2022-09-01T08:06:04.097Z,21.70
2022-09-01T08:08:31.985Z,21.63
2022-09-01T08:11:06.326Z,21.70
2022-09-01T08:13:38.922Z,21.75
2022-09-01T08:16:16.850Z,21.72
2022-09-01T08:18:48.600Z,21.67
2022-09-01T08:21:22.224Z,21.66
2022-09-01T08:23:54.424Z,21.68
2022-09-01T08:26:23.428Z,21.67
2022-09-01T08:28:55.194Z,21.60
2022-09-01T08:31:24.630Z,21.87
2022-09-01T08:33:52.214Z,21.85
2022-09-01T08:36:23.698Z,21.82
2022-09-01T08:38:52.724Z,22.09
2022-09-01T08:41:28.559Z,21.96
2022-09-01T08:44:00.336Z,21.96
2022-09-01T08:46:28.715Z,21.98
2022-09-01T08:49:24.120Z,22.06
2022-09-01T08:51:48.066Z,21.98
2022-09-01T08:54:29.750Z,22.14
2022-09-01T08:57:02.435Z,22.10
2022-09-01T08:59:36.146Z,22.08
2022-09-01T09:04:53.539Z,22.01
2022-09-01T09:07:39.392Z,22.01
2022-09-01T09:10:12.998Z,22.17
2022-09-01T09:12:49.558Z,22.29
2022-09-01T09:15:19.159Z,22.45
2022-09-01T09:17:47.810Z,22.33
2022-09-01T09:20:14.985Z,22.43
2022-09-01T09:22:42.489Z,22.41
2022-09-01T09:25:10.875Z,22.41
2022-09-01T09:27:39.274Z,22.54
2022-09-01T09:30:12.913Z,22.34
2022-09-01T09:33:19.979Z,22.57
2022-09-01T09:35:36.346Z,22.62
2022-09-01T09:38:33.639Z,22.70
2022-09-01T09:41:20.398Z,22.80
2022-09-01T09:43:49.752Z,22.72
2022-09-01T09:46:25.276Z,22.97
2022-09-01T09:49:11.267Z,23.00
2022-09-01T09:51:39.602Z,22.95
2022-09-01T09:54:22.173Z,23.08
2022-09-01T09:56:50.080Z,23.16
2022-09-01T09:59:45.873Z,22.88
2022-09-01T10:02:23.162Z,23.03
2022-09-01T10:04:56.185Z,23.09
2022-09-01T10:07:26.624Z,23.10
2022-09-01T10:09:55.021Z,23.02
2022-09-01T10:12:23.777Z,23.11
2022-09-01T10:15:05.537Z,23.45
2022-09-01T10:17:43.520Z,23.60
2022-09-01T10:20:17.055Z,23.98
2022-09-01T10:22:44.792Z,24.34
2022-09-01T10:25:14.376Z,24.41
2022-09-01T10:27:42.442Z,24.26
2022-09-01T10:30:20.112Z,24.52
2022-09-01T10:32:55.224Z,24.73
2022-09-01T10:35:27.466Z,24.86
2022-09-01T10:37:54.923Z,24.92
2022-09-01T10:40:32.056Z,24.75
2022-09-01T10:43:05.488Z,24.67
2022-09-01T10:45:34.563Z,24.71
2022-09-01T10:48:30.487Z,24.83
2022-09-01T10:51:18.431Z,24.69
2022-09-01T10:53:47.143Z,24.43
2022-09-01T10:56:36.643Z,25.05
2022-09-01T11:02:22.994Z,25.19
2022-09-01T11:04:41.557Z,25.03
2022-09-01T11:07:50.759Z,25.04
2022-09-01T11:10:32.773Z,25.27
2022-09-01T11:13:01.047Z,25.46
2022-09-01T11:15:35.461Z,25.58
2022-09-01T11:18:03.671Z,25.60
2022-09-01T11:20:34.870Z,25.78
2022-09-01T11:23:22.031Z,25.76
2022-09-01T11:26:19.052Z,25.88
2022-09-01T11:28:38.035Z,25.98
2022-09-01T11:31:08.628Z,26.29
2022-09-01T11:33:39.508Z,26.46
2022-09-01T11:36:12.750Z,26.73
2022-09-01T11:38:55.224Z,26.62
2022-09-01T11:41:29.001Z,26.73
2022-09-01T11:43:58.183Z,26.51
2022-09-01T11:46:27.342Z,26.71
2022-09-01T11:48:54.967Z,26.61
2022-09-01T11:51:22.128Z,26.82
2022-09-01T11:53:50.493Z,27.06
2022-09-01T11:56:20.044Z,26.87
2022-09-01T11:58:47.561Z,27.10
2022-09-01T12:01:18.223Z,26.94
2022-09-01T12:03:47.218Z,26.89
2022-09-01T12:06:19.007Z,26.99
2022-09-01T12:08:51.589Z,27.07
2022-09-01T12:11:19.956Z,27.31
2022-09-01T12:14:05.618Z,27.45
2022-09-01T12:16:37.887Z,27.51
2022-09-01T12:19:05.856Z,27.37
2022-09-01T12:21:34.676Z,27.31
2022-09-01T12:24:20.809Z,27.49
2022-09-01T12:26:48.948Z,27.51
2022-09-01T12:29:16.492Z,27.46
2022-09-01T12:31:44.841Z,27.37
2022-09-01T12:34:30.933Z,27.52
2022-09-01T12:37:16.623Z,27.52
2022-09-01T12:39:46.179Z,27.63
2022-09-01T12:42:19.339Z,27.85
2022-09-01T12:44:49.156Z,27.64
2022-09-01T12:47:33.570Z,27.50
2022-09-01T12:50:03.463Z,27.94
2022-09-01T12:52:31.067Z,27.83
2022-09-01T12:54:58.355Z,27.70
2022-09-01T12:57:29.867Z,27.63
2022-09-01T13:00:06.759Z,27.60
2022-09-01T13:02:38.374Z,27.64
2022-09-01T13:05:19.210Z,27.67
2022-09-01T13:07:46.633Z,27.71
2022-09-01T13:10:14.706Z,27.66
2022-09-01T13:12:42.123Z,27.64
2022-09-01T13:15:10.194Z,27.66
2022-09-01T13:17:38.380Z,27.84
2022-09-01T13:20:06.570Z,27.89
2022-09-01T13:22:35.133Z,27.85
2022-09-01T13:25:02.309Z,27.71
2022-09-01T13:27:29.514Z,27.64
2022-09-01T13:29:57.173Z,27.85
2022-09-01T13:32:26.757Z,27.66
2022-09-01T13:34:55.116Z,27.85
2022-09-01T13:37:24.096Z,27.73
2022-09-01T13:39:51.450Z,27.92
2022-09-01T13:42:22.098Z,27.99
2022-09-01T13:44:54.075Z,28.06
2022-09-01T13:47:31.796Z,27.94
2022-09-01T13:50:11.137Z,27.84
2022-09-01T13:52:43.198Z,27.25
2022-09-01T13:55:11.800Z,27.35
2022-09-01T13:57:39.038Z,27.60
2022-09-01T14:00:08.998Z,27.64
2022-09-01T14:02:40.707Z,27.73
2022-09-01T14:05:08.478Z,27.59
2022-09-01T14:07:35.739Z,27.69
2022-09-01T14:10:02.932Z,27.80
2022-09-01T14:12:30.845Z,27.80
2022-09-01T14:15:16.493Z,27.55
2022-09-01T14:17:44.601Z,27.50
2022-09-01T14:20:13.748Z,27.62
2022-09-01T14:22:41.063Z,27.39
2022-09-01T14:25:09.013Z,27.00
2022-09-01T14:27:36.382Z,27.18
2022-09-01T14:30:04.536Z,27.08
2022-09-01T14:32:32.035Z,27.11
2022-09-01T14:34:59.197Z,27.31
2022-09-01T14:37:26.404Z,27.13
2022-09-01T14:39:54.851Z,27.12
2022-09-01T14:42:24.045Z,27.24
2022-09-01T14:44:51.538Z,27.21
2022-09-01T14:47:21.396Z,27.22
2022-09-01T14:49:48.556Z,26.56
2022-09-01T14:52:17.808Z,26.90
2022-09-01T14:54:45.435Z,27.01
2022-09-01T14:57:36.301Z,27.04
2022-09-01T15:00:01.514Z,27.11
2022-09-01T15:02:31.534Z,26.85
2022-09-01T15:04:58.743Z,26.92
2022-09-01T15:07:26.167Z,26.67
2022-09-01T15:09:53.391Z,26.89
2022-09-01T15:12:21.736Z,26.92
2022-09-01T15:14:49.223Z,26.96
2022-09-01T15:17:16.415Z,27.01
2022-09-01T15:19:43.605Z,27.10
2022-09-01T15:22:14.475Z,26.98
2022-09-01T15:24:41.971Z,27.15
2022-09-01T15:27:09.700Z,27.14
2022-09-01T15:29:46.191Z,27.17
2022-09-01T15:32:20.512Z,27.12
2022-09-01T15:34:55.515Z,27.05
2022-09-01T15:37:22.696Z,27.07
2022-09-01T15:39:49.947Z,27.16
2022-09-01T15:42:18.502Z,27.04
2022-09-01T15:44:47.332Z,27.06
2022-09-01T15:47:14.504Z,27.00
2022-09-01T15:49:43.511Z,27.01
2022-09-01T15:52:10.854Z,26.90
2022-09-01T15:54:38.154Z,26.95
2022-09-01T15:57:06.428Z,26.90
2022-09-01T15:59:40.054Z,26.96
2022-09-01T16:02:07.874Z,26.85
2022-09-01T16:04:35.346Z,26.88
2022-09-01T16:07:02.601Z,26.83
2022-09-01T16:09:29.756Z,26.81
2022-09-01T16:11:57.289Z,26.67
2022-09-01T16:14:24.445Z,26.75
2022-09-01T16:16:54.655Z,26.71
2022-09-01T16:19:22.599Z,26.72
2022-09-01T16:21:53.359Z,26.59
2022-09-01T16:24:20.726Z,26.55
2022-09-01T16:26:48.492Z,26.55
2022-09-01T16:29:21.987Z,26.50
2022-09-01T16:31:51.493Z,26.43
2022-09-01T16:34:18.750Z,26.33
2022-09-01T16:36:59.409Z,26.26
2022-09-01T16:39:29.797Z,26.27
2022-09-01T16:42:01.271Z,26.26
2022-09-01T16:44:31.768Z,26.09
2022-09-01T16:47:19.234Z,26.13
2022-09-01T16:50:03.929Z,26.13
2022-09-01T16:52:34.492Z,26.04
2022-09-01T16:55:06.202Z,26.04
2022-09-01T16:57:45.646Z,25.98
2022-09-01T17:00:14.189Z,25.94
2022-09-01T17:02:42.014Z,25.85
2022-09-01T17:05:13.016Z,25.85
2022-09-01T17:07:45.029Z,25.70
2022-09-01T17:10:25.025Z,25.61
2022-09-01T17:12:55.991Z,25.50
2022-09-01T17:15:40.092Z,25.55
2022-09-01T17:18:22.098Z,25.44
2022-09-01T17:20:58.095Z,25.39
2022-09-01T17:23:28.747Z,25.25
2022-09-01T17:26:07.935Z,25.26
2022-09-01T17:28:37.020Z,25.25
2022-09-01T17:31:14.640Z,25.21
2022-09-01T17:33:48.103Z,25.11
2022-09-01T17:36:22.822Z,25.04
2022-09-01T17:39:01.480Z,24.82
2022-09-01T17:41:38.127Z,24.88
2022-09-01T17:44:24.081Z,24.59
2022-09-01T17:46:54.974Z,24.35
2022-09-01T17:49:28.766Z,24.37
2022-09-01T17:52:15.222Z,24.40
2022-09-01T17:54:58.643Z,24.26
2022-09-01T17:57:39.396Z,24.24
2022-09-01T18:00:08.984Z,24.22
2022-09-01T18:02:46.752Z,24.11
2022-09-01T18:05:15.036Z,24.22
2022-09-01T18:08:01.205Z,24.02
2022-09-01T18:10:49.439Z,23.83
2022-09-01T18:13:30.747Z,23.91
2022-09-01T18:16:06.836Z,23.84
2022-09-01T18:18:38.168Z,23.70
2022-09-01T18:21:08.173Z,23.46
2022-09-01T18:23:37.472Z,23.49
2022-09-01T18:26:23.240Z,23.47
2022-09-01T18:28:51.565Z,23.54
2022-09-01T18:31:25.675Z,23.42
2022-09-01T18:33:53.138Z,23.43
2022-09-01T18:36:34.052Z,23.53
2022-09-01T18:39:09.731Z,23.58
2022-09-01T18:41:43.047Z,23.47
2022-09-01T18:44:26.700Z,23.36
2022-09-01T18:47:03.060Z,23.35
2022-09-01T18:49:35.796Z,23.23
2022-09-01T18:52:06.426Z,23.09
2022-09-01T18:54:35.729Z,23.02
2022-09-01T18:57:07.076Z,23.05
2022-09-01T18:59:38.712Z,23.13
2022-09-01T19:02:06.759Z,22.96
2022-09-01T19:04:37.947Z,23.04
2022-09-01T19:07:06.006Z,23.03
2022-09-01T19:09:39.338Z,22.85
2022-09-01T19:12:10.849Z,22.83
2022-09-01T19:14:57.351Z,22.75
2022-09-01T19:17:25.136Z,22.78
2022-09-01T19:19:52.352Z,22.58
2022-09-01T19:22:21.858Z,22.70
2022-09-01T19:25:19.895Z,22.55
2022-09-01T19:27:50.872Z,22.63
2022-09-01T19:30:18.702Z,22.59
2022-09-01T19:32:46.234Z,22.26
2022-09-01T19:35:15.060Z,22.41
2022-09-01T19:37:46.711Z,22.43
2022-09-01T19:40:18.131Z,22.52
2022-09-01T19:42:58.011Z,22.38
2022-09-01T19:45:29.260Z,22.52
2022-09-01T19:48:04.769Z,22.26
2022-09-01T19:50:46.215Z,22.18
2022-09-01T19:53:24.051Z,22.22
2022-09-01T19:55:55.411Z,22.18
2022-09-01T19:58:38.509Z,22.18
2022-09-01T20:01:05.868Z,22.25
2022-09-01T20:03:34.888Z,22.18
2022-09-01T20:06:06.991Z,22.22
2022-09-01T20:08:40.525Z,22.22
2022-09-01T20:11:10.696Z,22.07
2022-09-01T20:13:47.898Z,22.18
2022-09-01T20:16:21.125Z,22.23
2022-09-01T20:19:03.587Z,22.17
2022-09-01T20:21:31.385Z,22.15
2022-09-01T20:23:58.745Z,22.15
2022-09-01T20:26:27.099Z,22.06
2022-09-01T20:29:26.799Z,22.18
2022-09-01T20:31:55.977Z,22.15
2022-09-01T20:34:35.505Z,21.86
2022-09-01T20:37:03.455Z,21.87
2022-09-01T20:39:58.681Z,21.74
2022-09-01T20:42:35.140Z,21.95
2022-09-01T20:45:10.328Z,21.56
2022-09-01T20:47:37.737Z,21.54
2022-09-01T20:50:10.536Z,21.79
2022-09-01T20:52:53.331Z,21.74
2022-09-01T20:55:36.095Z,21.57
2022-09-01T20:58:09.368Z,21.56
2022-09-01T21:00:50.380Z,21.34
2022-09-01T21:03:33.950Z,21.29
2022-09-01T21:06:07.888Z,21.29
2022-09-01T21:08:37.065Z,21.34
2022-09-01T21:11:13.883Z,21.51
2022-09-01T21:13:44.357Z,21.37
2022-09-01T21:16:30.618Z,21.49
2022-09-01T21:19:01.947Z,21.32
2022-09-01T21:21:29.113Z,21.34
2022-09-01T21:23:56.342Z,21.15
2022-09-01T21:26:24.976Z,21.21
2022-09-01T21:28:53.554Z,21.28
2022-09-01T21:31:21.398Z,21.25
2022-09-01T21:33:48.861Z,21.18
2022-09-01T21:36:16.412Z,21.23
2022-09-01T21:38:43.604Z,21.23
2022-09-01T21:41:13.252Z,20.94
2022-09-01T21:43:41.822Z,21.14
2022-09-01T21:46:09.376Z,21.14
2022-09-01T21:48:37.143Z,21.03
2022-09-01T21:51:04.820Z,21.03
2022-09-01T21:53:32.283Z,21.07
2022-09-01T21:55:59.934Z,21.03
2022-09-01T21:58:27.292Z,21.08
2022-09-01T22:00:54.563Z,21.16
2022-09-01T22:03:22.101Z,20.74
2022-09-01T22:05:51.197Z,20.84
2022-09-01T22:08:19.007Z,20.79
2022-09-01T22:10:51.579Z,20.69
2022-09-01T22:13:19.385Z,20.86
2022-09-01T22:15:47.941Z,20.81
2022-09-01T22:18:15.680Z,20.85
2022-09-01T22:20:42.905Z,20.92
2022-09-01T22:23:10.458Z,20.37
2022-09-01T22:25:40.676Z,20.50
2022-09-01T22:28:07.903Z,20.50
2022-09-01T22:30:35.568Z,20.48
2022-09-01T22:33:04.310Z,20.20
2022-09-01T22:35:32.570Z,20.62
2022-09-01T22:38:00.042Z,20.74
2022-09-01T22:40:27.260Z,20.82
2022-09-01T22:42:56.736Z,20.93
2022-09-01T22:45:24.270Z,20.99
2022-09-01T22:47:51.485Z,21.01
2022-09-01T22:50:18.668Z,21.06
2022-09-01T22:52:47.203Z,21.12
2022-09-01T22:55:14.420Z,21.21
2022-09-01T22:57:41.665Z,21.34
2022-09-01T23:00:10.116Z,21.09
2022-09-01T23:02:37.458Z,21.24
2022-09-01T23:05:06.090Z,21.29
2022-09-01T23:07:34.492Z,21.25
2022-09-01T23:10:01.643Z,21.19
2022-09-01T23:12:37.737Z,21.22
2022-09-01T23:15:05.645Z,21.12
2022-09-01T23:17:33.201Z,21.33
2022-09-01T23:20:02.312Z,21.35
2022-09-01T23:22:29.830Z,21.41
2022-09-01T23:24:56.960Z,21.28
2022-09-01T23:27:24.177Z,21.37
2022-09-01T23:29:51.808Z,21.54
2022-09-01T23:32:19.253Z,21.65
2022-09-01T23:34:47.747Z,21.27
2022-09-01T23:37:15.167Z,21.29
2022-09-01T23:39:42.504Z,21.62
2022-09-01T23:42:09.836Z,21.61
2022-09-01T23:44:37.256Z,21.40
2022-09-01T23:47:04.419Z,21.57
2022-09-01T23:49:31.557Z,21.59
2022-09-01T23:51:59.118Z,21.76
2022-09-01T23:54:27.299Z,21.61
2022-09-01T23:56:54.474Z,21.65
2022-09-01T23:59:27.502Z,21.74
